sensor_id;sensor_type;location;lat;lon;timestamp;pressure;altitude;pressure_sealevel;temperature;humidity
18652;BME280;9455;54.302;10.124;2023-11-19T00:00:57;100849.25;;;5.33;100.00
18652;BME280;9455;54.302;10.124;2023-11-19T00:03:24;100845.88;;;5.31;100.00
18652;BME280;9455;54.302;10.124;2023-11-19T00:05:52;100832.56;;;5.32;100.00
18652;BME280;9455;54.302;10.124;2023-11-19T00:08:18;100837.44;;;5.38;100.00
18652;BME280;9455;54.302;10.124;2023-11-19T00:10:45;100820.63;;;5.39;100.00
18652;BME280;9455;54.302;10.124;2023-11-19T00:13:12;100808.19;;;5.27;100.00
18652;BME280;9455;54.302;10.124;2023-11-19T00:15:39;100805.34;;;5.30;100.00
18652;BME280;9455;54.302;10.124;2023-11-19T00:18:05;100805.34;;;5.30;100.00
18652;BME280;9455;54.302;10.124;2023-11-19T00:20:32;100801.03;;;5.29;100.00
18652;BME280;9455;54.302;10.124;2023-11-19T00:23:00;100797.44;;;5.30;100.00
18652;BME280;9455;54.302;10.124;2023-11-19T00:25:27;100801.47;;;5.36;100.00
18652;BME280;9455;54.302;10.124;2023-11-19T00:27:54;100791.19;;;5.31;100.00
18652;BME280;9455;54.302;10.124;2023-11-19T00:30:21;100779.69;;;5.32;100.00
18652;BME280;9455;54.302;10.124;2023-11-19T00:32:48;100776.28;;;5.30;100.00
18652;BME280;9455;54.302;10.124;2023-11-19T00:35:14;100760.41;;;5.30;100.00
18652;BME280;9455;54.302;10.124;2023-11-19T00:37:40;100746.00;;;5.22;100.00
18652;BME280;9455;54.302;10.124;2023-11-19T00:40:10;100754.53;;;5.39;100.00
18652;BME280;9455;54.302;10.124;2023-11-19T00:42:37;100740.22;;;5.29;100.00
18652;BME280;9455;54.302;10.124;2023-11-19T00:45:04;100726.59;;;5.35;100.00
18652;BME280;9455;54.302;10.124;2023-11-19T00:47:33;100718.31;;;5.27;100.00
18652;BME280;9455;54.302;10.124;2023-11-19T00:50:00;100716.63;;;5.26;100.00
18652;BME280;9455;54.302;10.124;2023-11-19T00:52:27;100716.66;;;5.39;100.00
18652;BME280;9455;54.302;10.124;2023-11-19T00:54:53;100709.03;;;5.34;100.00
18652;BME280;9455;54.302;10.124;2023-11-19T00:57:21;100701.47;;;5.42;100.00
18652;BME280;9455;54.302;10.124;2023-11-19T00:59:49;100695.19;;;5.31;100.00
18652;BME280;9455;54.302;10.124;2023-11-19T01:02:15;100687.56;;;5.39;100.00
18652;BME280;9455;54.302;10.124;2023-11-19T01:04:42;100683.25;;;5.38;100.00
18652;BME280;9455;54.302;10.124;2023-11-19T01:07:09;100666.94;;;5.44;100.00
18652;BME280;9455;54.302;10.124;2023-11-19T01:09:38;100662.28;;;5.35;100.00
18652;BME280;9455;54.302;10.124;2023-11-19T01:12:06;100653.31;;;5.37;100.00
18652;BME280;9455;54.302;10.124;2023-11-19T01:14:34;100643.50;;;5.39;100.00
18652;BME280;9455;54.302;10.124;2023-11-19T01:17:01;100637.56;;;5.48;100.00
18652;BME280;9455;54.302;10.124;2023-11-19T01:19:30;100640.19;;;5.48;100.00
18652;BME280;9455;54.302;10.124;2023-11-19T01:21:56;100623.81;;;5.43;100.00
18652;BME280;9455;54.302;10.124;2023-11-19T01:24:23;100624.34;;;5.48;100.00
18652;BME280;9455;54.302;10.124;2023-11-19T01:26:50;100607.75;;;5.46;100.00
18652;BME280;9455;54.302;10.124;2023-11-19T01:29:17;100603.28;;;5.47;100.00
18652;BME280;9455;54.302;10.124;2023-11-19T01:31:46;100592.09;;;5.43;100.00
18652;BME280;9455;54.302;10.124;2023-11-19T01:34:13;100588.38;;;5.71;100.00
18652;BME280;9455;54.302;10.124;2023-11-19T01:36:39;100573.28;;;5.48;100.00
18652;BME280;9455;54.302;10.124;2023-11-19T01:39:06;100564.28;;;5.50;100.00
18652;BME280;9455;54.302;10.124;2023-11-19T01:41:34;100561.41;;;5.41;100.00
18652;BME280;9455;54.302;10.124;2023-11-19T01:44:01;100545.34;;;5.56;100.00
18652;BME280;9455;54.302;10.124;2023-11-19T01:46:29;100537.06;;;5.61;100.00
18652;BME280;9455;54.302;10.124;2023-11-19T01:48:59;100539.50;;;5.51;100.00
18652;BME280;9455;54.302;10.124;2023-11-19T01:51:26;100529.47;;;5.56;100.00
18652;BME280;9455;54.302;10.124;2023-11-19T01:53:53;100528.41;;;5.46;100.00
18652;BME280;9455;54.302;10.124;2023-11-19T01:56:22;100525.00;;;5.57;100.00
18652;BME280;9455;54.302;10.124;2023-11-19T01:58:49;100531.03;;;5.71;100.00
18652;BME280;9455;54.302;10.124;2023-11-19T02:01:16;100531.88;;;5.59;100.00
18652;BME280;9455;54.302;10.124;2023-11-19T02:03:43;100526.69;;;5.70;100.00
18652;BME280;9455;54.302;10.124;2023-11-19T02:06:11;100526.38;;;5.62;100.00
18652;BME280;9455;54.302;10.124;2023-11-19T02:08:38;100519.72;;;5.57;100.00
18652;BME280;9455;54.302;10.124;2023-11-19T02:11:05;100530.41;;;5.55;100.00
18652;BME280;9455;54.302;10.124;2023-11-19T02:13:33;100535.19;;;5.50;100.00
18652;BME280;9455;54.302;10.124;2023-11-19T02:16:01;100536.84;;;5.64;100.00
18652;BME280;9455;54.302;10.124;2023-11-19T02:18:28;100529.47;;;5.56;100.00
18652;BME280;9455;54.302;10.124;2023-11-19T02:20:55;100522.25;;;5.58;100.00
18652;BME280;9455;54.302;10.124;2023-11-19T02:23:25;100518.03;;;5.56;100.00
18652;BME280;9455;54.302;10.124;2023-11-19T02:26:00;100519.50;;;5.60;100.00
18652;BME280;9455;54.302;10.124;2023-11-19T02:28:29;100507.78;;;5.51;100.00
18652;BME280;9455;54.302;10.124;2023-11-19T02:30:56;100489.44;;;5.61;100.00
18652;BME280;9455;54.302;10.124;2023-11-19T02:33:23;100497.50;;;5.47;100.00
18652;BME280;9455;54.302;10.124;2023-11-19T02:35:50;100499.84;;;5.51;100.00
18652;BME280;9455;54.302;10.124;2023-11-19T02:38:17;100469.38;;;5.58;100.00
18652;BME280;9455;54.302;10.124;2023-11-19T02:40:43;100466.97;;;5.43;100.00
18652;BME280;9455;54.302;10.124;2023-11-19T02:43:10;100437.66;;;5.46;100.00
18652;BME280;9455;54.302;10.124;2023-11-19T02:45:38;100413.25;;;5.42;100.00
18652;BME280;9455;54.302;10.124;2023-11-19T02:48:05;100414.72;;;5.46;100.00
18652;BME280;9455;54.302;10.124;2023-11-19T02:50:32;100412.19;;;5.45;100.00
18652;BME280;9455;54.302;10.124;2023-11-19T02:52:59;100394.06;;;5.51;100.00
18652;BME280;9455;54.302;10.124;2023-11-19T02:55:26;100385.81;;;5.56;100.00
18652;BME280;9455;54.302;10.124;2023-11-19T02:57:55;100361.56;;;5.62;100.00
18652;BME280;9455;54.302;10.124;2023-11-19T03:00:24;100347.72;;;5.58;100.00
18652;BME280;9455;54.302;10.124;2023-11-19T03:02:59;100346.09;;;5.45;100.00
18652;BME280;9455;54.302;10.124;2023-11-19T03:05:30;100356.81;;;5.54;100.00
18652;BME280;9455;54.302;10.124;2023-11-19T03:07:57;100345.28;;;5.55;100.00
18652;BME280;9455;54.302;10.124;2023-11-19T03:10:23;100348.50;;;5.71;100.00
18652;BME280;9455;54.302;10.124;2023-11-19T03:12:50;100343.16;;;5.60;100.00
18652;BME280;9455;54.302;10.124;2023-11-19T03:15:17;100334.75;;;5.66;100.00
18652;BME280;9455;54.302;10.124;2023-11-19T03:17:44;100335.44;;;5.57;100.00
18652;BME280;9455;54.302;10.124;2023-11-19T03:20:12;100342.41;;;5.58;100.00
18652;BME280;9455;54.302;10.124;2023-11-19T03:22:41;100341.94;;;5.53;100.00
18652;BME280;9455;54.302;10.124;2023-11-19T03:25:08;100341.44;;;5.59;100.00
18652;BME280;9455;54.302;10.124;2023-11-19T03:27:35;100329.63;;;5.52;100.00
18652;BME280;9455;54.302;10.124;2023-11-19T03:30:02;100326.56;;;5.58;100.00
18652;BME280;9455;54.302;10.124;2023-11-19T03:32:30;100324.94;;;5.68;100.00
18652;BME280;9455;54.302;10.124;2023-11-19T03:34:56;100301.56;;;5.62;100.00
18652;BME280;9455;54.302;10.124;2023-11-19T03:37:25;100289.31;;;5.61;100.00
18652;BME280;9455;54.302;10.124;2023-11-19T03:39:53;100271.06;;;5.69;100.00
18652;BME280;9455;54.302;10.124;2023-11-19T03:42:19;100274.06;;;5.65;100.00
18652;BME280;9455;54.302;10.124;2023-11-19T03:44:47;100280.06;;;5.67;100.00
18652;BME280;9455;54.302;10.124;2023-11-19T03:47:14;100274.28;;;5.62;100.00
18652;BME280;9455;54.302;10.124;2023-11-19T03:49:41;100273.56;;;5.60;100.00
18652;BME280;9455;54.302;10.124;2023-11-19T03:52:07;100270.13;;;5.70;100.00
18652;BME280;9455;54.302;10.124;2023-11-19T03:54:36;100261.94;;;5.73;100.00
18652;BME280;9455;54.302;10.124;2023-11-19T03:57:03;100253.50;;;5.68;100.00
18652;BME280;9455;54.302;10.124;2023-11-19T03:59:29;100260.00;;;5.64;100.00
18652;BME280;9455;54.302;10.124;2023-11-19T04:01:56;100247.97;;;5.60;100.00
18652;BME280;9455;54.302;10.124;2023-11-19T04:04:25;100242.19;;;5.66;100.00
18652;BME280;9455;54.302;10.124;2023-11-19T04:06:53;100255.81;;;5.73;100.00
18652;BME280;9455;54.302;10.124;2023-11-19T04:09:19;100251.84;;;5.67;100.00
18652;BME280;9455;54.302;10.124;2023-11-19T04:11:47;100238.50;;;5.69;100.00
18652;BME280;9455;54.302;10.124;2023-11-19T04:14:14;100245.47;;;5.70;100.00
18652;BME280;9455;54.302;10.124;2023-11-19T04:16:43;100236.22;;;5.75;100.00
18652;BME280;9455;54.302;10.124;2023-11-19T04:19:09;100224.53;;;5.67;100.00
18652;BME280;9455;54.302;10.124;2023-11-19T04:21:36;100217.22;;;5.70;100.00
18652;BME280;9455;54.302;10.124;2023-11-19T04:24:03;100211.19;;;5.68;100.00
18652;BME280;9455;54.302;10.124;2023-11-19T04:26:29;100211.81;;;5.72;100.00
18652;BME280;9455;54.302;10.124;2023-11-19T04:28:58;100209.41;;;5.80;100.00
18652;BME280;9455;54.302;10.124;2023-11-19T04:31:29;100195.31;;;5.68;100.00
18652;BME280;9455;54.302;10.124;2023-11-19T04:33:56;100189.56;;;5.74;100.00
18652;BME280;9455;54.302;10.124;2023-11-19T04:36:25;100179.78;;;5.88;100.00
18652;BME280;9455;54.302;10.124;2023-11-19T04:38:51;100172.66;;;5.88;100.00
18652;BME280;9455;54.302;10.124;2023-11-19T04:41:18;100170.03;;;5.88;100.00
18652;BME280;9455;54.302;10.124;2023-11-19T04:43:44;100171.06;;;5.74;100.00
18652;BME280;9455;54.302;10.124;2023-11-19T04:46:12;100168.41;;;5.74;100.00
18652;BME280;9455;54.302;10.124;2023-11-19T04:48:39;100161.69;;;5.70;100.00
18652;BME280;9455;54.302;10.124;2023-11-19T04:51:06;100147.63;;;5.81;100.00
18652;BME280;9455;54.302;10.124;2023-11-19T04:53:32;100145.09;;;5.79;100.00
18652;BME280;9455;54.302;10.124;2023-11-19T04:55:59;100134.91;;;5.86;100.00
18652;BME280;9455;54.302;10.124;2023-11-19T04:58:25;100128.53;;;5.89;100.00
18652;BME280;9455;54.302;10.124;2023-11-19T05:00:52;100129.44;;;5.76;100.00
18652;BME280;9455;54.302;10.124;2023-11-19T05:03:20;100123.00;;;5.92;100.00
18652;BME280;9455;54.302;10.124;2023-11-19T05:05:48;100117.72;;;5.92;100.00
18652;BME280;9455;54.302;10.124;2023-11-19T05:08:15;100122.63;;;5.85;100.00
18652;BME280;9455;54.302;10.124;2023-11-19T05:10:42;100106.16;;;5.82;100.00
18652;BME280;9455;54.302;10.124;2023-11-19T05:13:08;100126.13;;;5.86;100.00
18652;BME280;9455;54.302;10.124;2023-11-19T05:15:35;100119.88;;;5.87;100.00
18652;BME280;9455;54.302;10.124;2023-11-19T05:18:02;100123.47;;;5.97;100.00
18652;BME280;9455;54.302;10.124;2023-11-19T05:20:31;100128.53;;;5.89;100.00
18652;BME280;9455;54.302;10.124;2023-11-19T05:22:58;100131.41;;;5.97;100.00
18652;BME280;9455;54.302;10.124;2023-11-19T05:25:26;100110.13;;;5.98;100.00
18652;BME280;9455;54.302;10.124;2023-11-19T05:27:53;100117.50;;;5.95;100.00
18652;BME280;9455;54.302;10.124;2023-11-19T05:30:20;100127.81;;;5.98;100.00
18652;BME280;9455;54.302;10.124;2023-11-19T05:32:48;100109.78;;;6.03;100.00
18652;BME280;9455;54.302;10.124;2023-11-19T05:35:14;100107.84;;;6.05;100.00
18652;BME280;9455;54.302;10.124;2023-11-19T05:37:42;100100.06;;;6.03;100.00
18652;BME280;9455;54.302;10.124;2023-11-19T05:40:09;100106.41;;;6.01;100.00
18652;BME280;9455;54.302;10.124;2023-11-19T05:42:39;100091.97;;;6.05;100.00
18652;BME280;9455;54.302;10.124;2023-11-19T05:45:07;100089.06;;;6.08;100.00
18652;BME280;9455;54.302;10.124;2023-11-19T05:47:34;100093.66;;;6.17;100.00
18652;BME280;9455;54.302;10.124;2023-11-19T05:50:00;100091.97;;;6.27;100.00
18652;BME280;9455;54.302;10.124;2023-11-19T05:52:27;100088.81;;;6.22;100.00
18652;BME280;9455;54.302;10.124;2023-11-19T05:55:00;100089.06;;;6.30;100.00
18652;BME280;9455;54.302;10.124;2023-11-19T05:57:29;100083.28;;;6.25;100.00
18652;BME280;9455;54.302;10.124;2023-11-19T05:59:55;100080.41;;;6.28;100.00
18652;BME280;9455;54.302;10.124;2023-11-19T06:02:24;100077.41;;;6.21;100.00
18652;BME280;9455;54.302;10.124;2023-11-19T06:04:50;100070.28;;;6.22;100.00
18652;BME280;9455;54.302;10.124;2023-11-19T06:07:17;100070.66;;;6.28;100.00
18652;BME280;9455;54.302;10.124;2023-11-19T06:09:43;100068.38;;;6.24;100.00
18652;BME280;9455;54.302;10.124;2023-11-19T06:12:11;100082.06;;;6.29;100.00
18652;BME280;9455;54.302;10.124;2023-11-19T06:14:40;100058.72;;;6.34;100.00
18652;BME280;9455;54.302;10.124;2023-11-19T06:17:06;100067.91;;;6.30;100.00
18652;BME280;9455;54.302;10.124;2023-11-19T06:19:33;100074.13;;;6.40;100.00
18652;BME280;9455;54.302;10.124;2023-11-19T06:22:00;100071.81;;;6.46;100.00
18652;BME280;9455;54.302;10.124;2023-11-19T06:24:27;100063.75;;;6.48;100.00
18652;BME280;9455;54.302;10.124;2023-11-19T06:26:53;100051.22;;;6.50;100.00
18652;BME280;9455;54.302;10.124;2023-11-19T06:29:21;100067.47;;;6.56;100.00
18652;BME280;9455;54.302;10.124;2023-11-19T06:31:48;100070.44;;;6.63;100.00
18652;BME280;9455;54.302;10.124;2023-11-19T06:34:15;100074.78;;;6.64;100.00
18652;BME280;9455;54.302;10.124;2023-11-19T06:36:41;100072.53;;;6.59;100.00
18652;BME280;9455;54.302;10.124;2023-11-19T06:39:09;100071.41;;;6.62;100.00
18652;BME280;9455;54.302;10.124;2023-11-19T06:41:36;100070.69;;;6.71;100.00
18652;BME280;9455;54.302;10.124;2023-11-19T06:44:03;100065.72;;;6.77;100.00
18652;BME280;9455;54.302;10.124;2023-11-19T06:46:32;100068.31;;;6.88;100.00
18652;BME280;9455;54.302;10.124;2023-11-19T06:48:58;100072.63;;;6.89;100.00
18652;BME280;9455;54.302;10.124;2023-11-19T06:51:25;100074.66;;;6.97;100.00
18652;BME280;9455;54.302;10.124;2023-11-19T06:53:53;100068.13;;;7.01;100.00
18652;BME280;9455;54.302;10.124;2023-11-19T06:56:20;100068.47;;;7.07;100.00
18652;BME280;9455;54.302;10.124;2023-11-19T06:58:47;100076.75;;;7.14;100.00
18652;BME280;9455;54.302;10.124;2023-11-19T07:01:14;100071.06;;;7.18;100.00
18652;BME280;9455;54.302;10.124;2023-11-19T07:03:42;100065.50;;;7.21;100.00
18652;BME280;9455;54.302;10.124;2023-11-19T07:06:10;100066.59;;;7.19;100.00
18652;BME280;9455;54.302;10.124;2023-11-19T07:08:38;100065.81;;;7.28;100.00
18652;BME280;9455;54.302;10.124;2023-11-19T07:11:04;100061.94;;;7.32;100.00
18652;BME280;9455;54.302;10.124;2023-11-19T07:13:31;100058.31;;;7.33;100.00
18652;BME280;9455;54.302;10.124;2023-11-19T07:15:58;100054.38;;;7.27;100.00
18652;BME280;9455;54.302;10.124;2023-11-19T07:18:25;100062.53;;;7.35;100.00
18652;BME280;9455;54.302;10.124;2023-11-19T07:20:53;100053.59;;;7.36;100.00
18652;BME280;9455;54.302;10.124;2023-11-19T07:23:19;100055.88;;;7.41;100.00
18652;BME280;9455;54.302;10.124;2023-11-19T07:25:47;100056.00;;;7.39;100.00
18652;BME280;9455;54.302;10.124;2023-11-19T07:28:15;100052.66;;;7.47;100.00
18652;BME280;9455;54.302;10.124;2023-11-19T07:30:42;100059.59;;;7.59;100.00
18652;BME280;9455;54.302;10.124;2023-11-19T07:33:09;100054.28;;;7.59;100.00
18652;BME280;9455;54.302;10.124;2023-11-19T07:35:36;100056.41;;;7.65;100.00
18652;BME280;9455;54.302;10.124;2023-11-19T07:38:04;100060.75;;;7.66;100.00
18652;BME280;9455;54.302;10.124;2023-11-19T07:40:30;100058.53;;;7.71;100.00
18652;BME280;9455;54.302;10.124;2023-11-19T07:42:57;100053.22;;;7.71;100.00
18652;BME280;9455;54.302;10.124;2023-11-19T07:45:24;100054.66;;;7.75;100.00
18652;BME280;9455;54.302;10.124;2023-11-19T07:47:50;100055.94;;;7.80;100.00
18652;BME280;9455;54.302;10.124;2023-11-19T07:50:17;100062.53;;;7.86;100.00
18652;BME280;9455;54.302;10.124;2023-11-19T07:52:45;100062.00;;;7.92;100.00
18652;BME280;9455;54.302;10.124;2023-11-19T07:55:13;100064.56;;;8.03;100.00
18652;BME280;9455;54.302;10.124;2023-11-19T07:57:40;100061.78;;;8.14;100.00
18652;BME280;9455;54.302;10.124;2023-11-19T08:00:07;100061.53;;;8.17;100.00
18652;BME280;9455;54.302;10.124;2023-11-19T08:02:37;100062.22;;;8.19;100.00
18652;BME280;9455;54.302;10.124;2023-11-19T08:05:04;100063.13;;;8.29;100.00
18652;BME280;9455;54.302;10.124;2023-11-19T08:07:31;100068.28;;;8.30;100.00
18652;BME280;9455;54.302;10.124;2023-11-19T08:09:57;100065.00;;;8.48;100.00
18652;BME280;9455;54.302;10.124;2023-11-19T08:12:26;100062.91;;;8.61;100.00
18652;BME280;9455;54.302;10.124;2023-11-19T08:14:53;100062.94;;;8.70;100.00
18652;BME280;9455;54.302;10.124;2023-11-19T08:17:19;100056.66;;;8.81;100.00
18652;BME280;9455;54.302;10.124;2023-11-19T08:19:48;100053.28;;;9.07;100.00
18652;BME280;9455;54.302;10.124;2023-11-19T08:22:15;100064.06;;;9.15;100.00
18652;BME280;9455;54.302;10.124;2023-11-19T08:24:41;100061.13;;;9.18;100.00
18652;BME280;9455;54.302;10.124;2023-11-19T08:27:08;100057.59;;;9.37;100.00
18652;BME280;9455;54.302;10.124;2023-11-19T08:29:36;100059.06;;;9.58;100.00
18652;BME280;9455;54.302;10.124;2023-11-19T08:32:03;100063.50;;;9.77;100.00
18652;BME280;9455;54.302;10.124;2023-11-19T08:34:30;100069.34;;;9.90;100.00
18652;BME280;9455;54.302;10.124;2023-11-19T08:36:57;100065.69;;;10.00;100.00
18652;BME280;9455;54.302;10.124;2023-11-19T08:39:23;100065.09;;;10.06;100.00
18652;BME280;9455;54.302;10.124;2023-11-19T08:41:50;100068.72;;;10.05;100.00
18652;BME280;9455;54.302;10.124;2023-11-19T08:44:16;100068.72;;;10.05;100.00
18652;BME280;9455;54.302;10.124;2023-11-19T08:46:49;100062.31;;;9.98;100.00
18652;BME280;9455;54.302;10.124;2023-11-19T08:49:16;100075.19;;;10.03;100.00
18652;BME280;9455;54.302;10.124;2023-11-19T08:51:42;100073.09;;;10.06;100.00
18652;BME280;9455;54.302;10.124;2023-11-19T08:54:09;100084.44;;;10.08;100.00
18652;BME280;9455;54.302;10.124;2023-11-19T08:56:36;100086.69;;;10.13;100.00
18652;BME280;9455;54.302;10.124;2023-11-19T08:59:04;100085.84;;;10.12;100.00
18652;BME280;9455;54.302;10.124;2023-11-19T09:01:31;100071.22;;;10.16;100.00
18652;BME280;9455;54.302;10.124;2023-11-19T09:03:59;100084.56;;;10.16;100.00
18652;BME280;9455;54.302;10.124;2023-11-19T09:06:25;100086.78;;;10.21;100.00
18652;BME280;9455;54.302;10.124;2023-11-19T09:08:52;100094.53;;;10.14;100.00
18652;BME280;9455;54.302;10.124;2023-11-19T09:11:23;100094.25;;;10.17;100.00
18652;BME280;9455;54.302;10.124;2023-11-19T09:13:50;100099.94;;;10.22;100.00
18652;BME280;9455;54.302;10.124;2023-11-19T09:16:16;100091.38;;;10.28;100.00
18652;BME280;9455;54.302;10.124;2023-11-19T09:18:43;100102.03;;;10.28;100.00
18652;BME280;9455;54.302;10.124;2023-11-19T09:21:11;100093.03;;;10.29;100.00
18652;BME280;9455;54.302;10.124;2023-11-19T09:23:38;100095.94;;;10.36;100.00
18652;BME280;9455;54.302;10.124;2023-11-19T09:26:06;100104.09;;;10.34;100.00
18652;BME280;9455;54.302;10.124;2023-11-19T09:28:32;100098.94;;;10.33;100.00
18652;BME280;9455;54.302;10.124;2023-11-19T09:30:59;100104.50;;;10.39;100.00
18652;BME280;9455;54.302;10.124;2023-11-19T09:33:25;100107.53;;;10.44;100.00
18652;BME280;9455;54.302;10.124;2023-11-19T09:35:52;100105.81;;;10.53;100.00
18652;BME280;9455;54.302;10.124;2023-11-19T09:38:20;100100.63;;;10.51;100.00
18652;BME280;9455;54.302;10.124;2023-11-19T09:40:47;100100.34;;;10.54;100.00
18652;BME280;9455;54.302;10.124;2023-11-19T09:43:14;100099.06;;;10.58;100.00
18652;BME280;9455;54.302;10.124;2023-11-19T09:45:47;100105.78;;;10.62;100.00
18652;BME280;9455;54.302;10.124;2023-11-19T09:48:16;100106.91;;;10.60;100.00
18652;BME280;9455;54.302;10.124;2023-11-19T09:50:44;100098.75;;;10.61;100.00
18652;BME280;9455;54.302;10.124;2023-11-19T09:53:11;100114.47;;;10.64;100.00
18652;BME280;9455;54.302;10.124;2023-11-19T09:55:40;100115.16;;;10.66;100.00
18652;BME280;9455;54.302;10.124;2023-11-19T09:58:07;100118.13;;;10.63;100.00
18652;BME280;9455;54.302;10.124;2023-11-19T10:00:34;100126.78;;;10.65;100.00
18652;BME280;9455;54.302;10.124;2023-11-19T10:03:02;100119.78;;;10.64;100.00
18652;BME280;9455;54.302;10.124;2023-11-19T10:05:30;100122.75;;;10.61;100.00
18652;BME280;9455;54.302;10.124;2023-11-19T10:07:57;100122.06;;;10.59;100.00
18652;BME280;9455;54.302;10.124;2023-11-19T10:10:24;100113.66;;;10.54;100.00
18652;BME280;9455;54.302;10.124;2023-11-19T10:12:52;100118.72;;;10.57;100.00
18652;BME280;9455;54.302;10.124;2023-11-19T10:15:23;100119.41;;;10.59;100.00
18652;BME280;9455;54.302;10.124;2023-11-19T10:17:52;100122.66;;;10.53;100.00
18652;BME280;9455;54.302;10.124;2023-11-19T10:20:18;100115.38;;;10.55;100.00
18652;BME280;9455;54.302;10.124;2023-11-19T10:22:45;100119.72;;;10.56;100.00
18652;BME280;9455;54.302;10.124;2023-11-19T10:25:22;100124.03;;;10.57;100.00
18652;BME280;9455;54.302;10.124;2023-11-19T10:27:49;100111.41;;;10.59;100.00
18652;BME280;9455;54.302;10.124;2023-11-19T10:30:20;100125.34;;;10.53;100.00
18652;BME280;9455;54.302;10.124;2023-11-19T10:33:02;100126.72;;;10.57;100.00
18652;BME280;9455;54.302;10.124;2023-11-19T10:35:29;100121.09;;;10.60;100.00
18652;BME280;9455;54.302;10.124;2023-11-19T10:37:56;100129.38;;;10.57;100.00
18652;BME280;9455;54.302;10.124;2023-11-19T10:40:37;100125.28;;;10.63;100.00
18652;BME280;9455;54.302;10.124;2023-11-19T10:43:05;100127.41;;;10.59;100.00
18652;BME280;9455;54.302;10.124;2023-11-19T10:45:34;100125.41;;;10.61;100.00
18652;BME280;9455;54.302;10.124;2023-11-19T10:48:02;100127.72;;;10.56;100.00
18652;BME280;9455;54.302;10.124;2023-11-19T10:50:29;100130.16;;;10.67;100.00
18652;BME280;9455;54.302;10.124;2023-11-19T10:52:57;100127.13;;;10.62;100.00
18652;BME280;9455;54.302;10.124;2023-11-19T10:55:27;100126.66;;;10.67;100.00
18652;BME280;9455;54.302;10.124;2023-11-19T10:57:58;100128.13;;;10.79;100.00
18652;BME280;9455;54.302;10.124;2023-11-19T11:00:25;100130.66;;;10.80;100.00
18652;BME280;9455;54.302;10.124;2023-11-19T11:02:56;100133.31;;;10.80;100.00
18652;BME280;9455;54.302;10.124;2023-11-19T11:05:26;100130.94;;;10.77;100.00
18652;BME280;9455;54.302;10.124;2023-11-19T11:07:55;100133.69;;;10.85;100.00
18652;BME280;9455;54.302;10.124;2023-11-19T11:10:25;100119.84;;;10.99;100.00
18652;BME280;9455;54.302;10.124;2023-11-19T11:12:52;100122.22;;;11.02;100.00
18652;BME280;9455;54.302;10.124;2023-11-19T11:15:24;100127.69;;;11.01;100.00
18652;BME280;9455;54.302;10.124;2023-11-19T11:17:57;100121.22;;;11.03;100.00
18652;BME280;9455;54.302;10.124;2023-11-19T11:20:25;100124.34;;;10.99;100.00
18652;BME280;9455;54.302;10.124;2023-11-19T11:23:04;100124.41;;;10.89;100.00
18652;BME280;9455;54.302;10.124;2023-11-19T11:25:39;100125.09;;;10.91;100.00
18652;BME280;9455;54.302;10.124;2023-11-19T11:28:23;100133.44;;;11.06;100.00
18652;BME280;9455;54.302;10.124;2023-11-19T11:31:09;100127.94;;;11.07;100.00
18652;BME280;9455;54.302;10.124;2023-11-19T11:34:05;100121.84;;;10.97;100.00
18652;BME280;9455;54.302;10.124;2023-11-19T11:36:38;100138.22;;;11.02;100.00
18652;BME280;9455;54.302;10.124;2023-11-19T11:39:13;100128.53;;;11.01;100.00
18652;BME280;9455;54.302;10.124;2023-11-19T11:41:40;100132.81;;;10.94;100.00
18652;BME280;9455;54.302;10.124;2023-11-19T11:44:07;100133.09;;;10.91;100.00
18652;BME280;9455;54.302;10.124;2023-11-19T11:46:56;100127.47;;;10.94;100.00
18652;BME280;9455;54.302;10.124;2023-11-19T11:49:30;100127.47;;;10.94;100.00
18652;BME280;9455;54.302;10.124;2023-11-19T11:52:00;100131.34;;;11.00;100.00
18652;BME280;9455;54.302;10.124;2023-11-19T11:54:28;100131.34;;;11.00;100.00
18652;BME280;9455;54.302;10.124;2023-11-19T11:57:03;100127.38;;;11.04;100.00
18652;BME280;9455;54.302;10.124;2023-11-19T11:59:43;100122.59;;;11.07;100.00
18652;BME280;9455;54.302;10.124;2023-11-19T12:02:11;100126.78;;;11.10;100.00
18652;BME280;9455;54.302;10.124;2023-11-19T12:04:39;100128.69;;;11.17;100.00
18652;BME280;9455;54.302;10.124;2023-11-19T12:07:07;100123.56;;;11.06;100.00
18652;BME280;9455;54.302;10.124;2023-11-19T12:09:36;100129.91;;;11.05;100.00
18652;BME280;9455;54.302;10.124;2023-11-19T12:12:17;100133.31;;;10.98;100.00
18652;BME280;9455;54.302;10.124;2023-11-19T12:15:01;100133.88;;;11.01;100.00
18652;BME280;9455;54.302;10.124;2023-11-19T12:17:46;100139.50;;;10.98;100.00
18652;BME280;9455;54.302;10.124;2023-11-19T12:20:17;100134.19;;;10.98;100.00
18652;BME280;9455;54.302;10.124;2023-11-19T12:22:45;100133.88;;;11.01;100.00
18652;BME280;9455;54.302;10.124;2023-11-19T12:25:12;100144.84;;;10.98;100.00
18652;BME280;9455;54.302;10.124;2023-11-19T12:27:40;100133.88;;;11.01;100.00
18652;BME280;9455;54.302;10.124;2023-11-19T12:30:08;100134.47;;;10.95;100.00
18652;BME280;9455;54.302;10.124;2023-11-19T12:32:45;100126.31;;;10.97;100.00
18652;BME280;9455;54.302;10.124;2023-11-19T12:35:12;100129.59;;;10.91;100.00
18652;BME280;9455;54.302;10.124;2023-11-19T12:37:41;100131.44;;;10.90;100.00
18652;BME280;9455;54.302;10.124;2023-11-19T12:40:13;100129.59;;;10.91;100.00
18652;BME280;9455;54.302;10.124;2023-11-19T12:42:40;100142.19;;;10.98;100.00
18652;BME280;9455;54.302;10.124;2023-11-19T12:45:07;100132.72;;;11.04;100.00
18652;BME280;9455;54.302;10.124;2023-11-19T12:47:35;100138.97;;;10.95;100.00
18652;BME280;9455;54.302;10.124;2023-11-19T12:50:02;100134.09;;;10.90;100.00
18652;BME280;9455;54.302;10.124;2023-11-19T12:52:29;100143.22;;;10.88;100.00